Time;durP1;ratioP1;P1;durP2;ratioP2;P2;SDS_P1;SDS_P2;PMS_P1;PMS_P2;Temp;Humidity;BMP_temperature;BMP_pressure;BME280_temperature;BME280_humidity;BME280_pressure;Samples;Min_cycle;Max_cycle;Signal;HPM_P1;HPM_P2
2022/12/24 00:00:34;;;;;;;24.73;11.30;;;;;;;14.40;100.00;102151.09;5001733;28;20447;-89
2022/12/24 00:03:04;;;;;;;25.37;12.30;;;;;;;14.40;100.00;102149.22;5012800;28;20442;-88
2022/12/24 00:05:33;;;;;;;25.03;11.30;;;;;;;14.46;100.00;102155.88;5027485;28;20436;-89
2022/12/24 00:08:01;;;;;;;26.60;11.03;;;;;;;14.45;100.00;102148.66;5021101;28;20443;-88
2022/12/24 00:10:31;;;;;;;22.80;12.07;;;;;;;14.47;100.00;102152.94;5026876;28;20511;-88
2022/12/24 00:12:59;;;;;;;23.00;10.80;;;;;;;14.45;100.00;102144.00;5050549;28;20444;-88
2022/12/24 00:15:27;;;;;;;26.57;10.57;;;;;;;14.48;100.00;102143.63;5033884;28;20440;-88
2022/12/24 00:17:57;;;;;;;21.23;11.00;;;;;;;14.52;100.00;102144.13;5023321;28;20440;-89
2022/12/24 00:20:24;;;;;;;21.30;9.83;;;;;;;14.51;100.00;102142.41;5038535;28;20497;-88
2022/12/24 00:22:52;;;;;;;24.27;11.50;;;;;;;14.47;100.00;102133.66;5024349;28;20460;-87
2022/12/24 00:25:21;;;;;;;24.33;11.47;;;;;;;14.52;100.00;102144.97;5037343;28;20444;-88
2022/12/24 00:27:50;;;;;;;20.57;11.00;;;;;;;14.54;100.00;102138.44;5033225;28;20527;-88
2022/12/24 00:30:17;;;;;;;24.37;11.23;;;;;;;14.51;100.00;102139.66;5009468;28;21228;-88
2022/12/24 00:32:46;;;;;;;22.67;11.73;;;;;;;14.53;100.00;102140.34;5005201;28;20466;-88
2022/12/24 00:35:14;;;;;;;27.03;12.40;;;;;;;14.55;100.00;102151.16;5021021;28;20538;-88
2022/12/24 00:37:41;;;;;;;24.37;11.50;;;;;;;14.56;100.00;102139.13;5020759;28;20445;-88
2022/12/24 00:40:11;;;;;;;19.80;11.30;;;;;;;14.55;100.00;102134.66;5017066;28;20498;-88
2022/12/24 00:42:39;;;;;;;21.30;10.70;;;;;;;14.56;100.00;102133.63;5034394;28;20497;-88
2022/12/24 00:45:08;;;;;;;21.33;10.27;;;;;;;14.58;100.00;102132.38;5004259;28;20446;-88
2022/12/24 00:47:36;;;;;;;23.80;9.70;;;;;;;14.58;100.00;102134.28;5036271;28;20445;-88
2022/12/24 00:50:05;;;;;;;21.90;9.20;;;;;;;14.60;100.00;102129.44;5036340;28;20486;-88
2022/12/24 00:52:38;;;;;;;19.70;10.80;;;;;;;14.57;100.00;102116.06;5032756;28;20454;-89
2022/12/24 00:55:07;;;;;;;18.73;9.80;;;;;;;14.60;100.00;102133.06;4994435;28;20819;-89
2022/12/24 00:57:35;;;;;;;19.03;11.00;;;;;;;14.59;100.00;102128.59;5014137;28;20803;-88
2022/12/24 01:00:04;;;;;;;24.60;11.70;;;;;;;14.59;100.00;102125.84;5017173;28;20428;-88
2022/12/24 01:02:33;;;;;;;21.97;13.70;;;;;;;14.62;100.00;102124.63;5029225;28;20473;-88
2022/12/24 01:05:10;;;;;;;22.63;14.13;;;;;;;14.61;100.00;102126.50;5020243;28;20443;-88
2022/12/24 01:07:43;;;;;;;28.33;14.57;;;;;;;14.58;100.00;102120.53;5006567;28;20434;-87
2022/12/24 01:10:14;;;;;;;26.50;14.37;;;;;;;14.57;100.00;102114.16;5040501;28;20564;-89
2022/12/24 01:12:43;;;;;;;33.67;13.60;;;;;;;14.59;100.00;102116.75;4984607;28;20833;-89
2022/12/24 01:15:13;;;;;;;25.30;14.47;;;;;;;14.62;100.00;102130.97;5013930;28;20496;-88
2022/12/24 01:17:41;;;;;;;20.93;13.70;;;;;;;14.58;100.00;102121.38;5018153;28;20478;-89
2022/12/24 01:20:18;;;;;;;23.90;13.43;;;;;;;14.60;100.00;102122.06;5012327;28;20435;-89
2022/12/24 01:22:47;;;;;;;25.07;14.17;;;;;;;14.62;100.00;102122.72;5032530;28;20439;-88
2022/12/24 01:25:15;;;;;;;29.10;12.70;;;;;;;14.63;100.00;102120.78;5047741;28;20447;-88
2022/12/24 01:27:42;;;;;;;24.83;13.60;;;;;;;14.62;100.00;102110.88;5014116;28;20485;-89
2022/12/24 01:30:14;;;;;;;23.17;13.30;;;;;;;14.62;100.00;102114.47;5042455;28;20467;-89
2022/12/24 01:32:44;;;;;;;30.50;13.17;;;;;;;14.64;100.00;102117.00;5032083;28;20937;-88
2022/12/24 01:35:12;;;;;;;21.97;12.73;;;;;;;14.64;100.00;102119.75;5021995;28;20950;-88
2022/12/24 01:37:47;;;;;;;25.17;14.30;;;;;;;14.63;100.00;102107.03;5023334;28;20929;-88
2022/12/24 01:43:22;;;;;;;25.40;13.40;;;;;;;14.66;100.00;102112.16;5029443;28;20511;-88
2022/12/24 01:46:01;;;;;;;24.57;13.90;;;;;;;14.66;100.00;102117.69;5034628;28;20444;-88
2022/12/24 01:49:11;;;;;;;28.80;12.03;;;;;;;14.66;100.00;102110.28;5038828;28;20492;-88
2022/12/24 01:51:43;;;;;;;21.97;11.53;;;;;;;14.66;100.00;102114.94;5007695;28;21014;-89
2022/12/24 01:54:16;;;;;;;24.60;12.00;;;;;;;14.64;100.00;102106.00;4978148;28;20814;-88
2022/12/24 01:56:45;;;;;;;21.40;12.37;;;;;;;14.61;100.00;102107.25;4959782;28;20935;-88
2022/12/24 01:59:15;;;;;;;29.60;11.73;;;;;;;14.61;100.00;102098.16;4972006;28;20481;-88
2022/12/24 02:01:43;;;;;;;23.73;13.70;;;;;;;14.59;100.00;102089.22;4988359;28;20449;-88
2022/12/24 02:04:18;;;;;;;23.07;13.77;;;;;;;14.65;100.00;102097.56;4975826;28;20442;-88
2022/12/24 02:06:47;;;;;;;21.33;12.03;;;;;;;14.56;100.00;102082.19;4987215;28;20536;-88
2022/12/24 02:09:29;;;;;;;22.17;11.37;;;;;;;14.57;100.00;102083.91;4966988;28;20562;-87
2022/12/24 02:11:57;;;;;;;19.80;10.63;;;;;;;14.62;100.00;102095.22;4957852;28;20579;-89
2022/12/24 02:14:26;;;;;;;19.47;10.47;;;;;;;14.63;100.00;102096.03;4972287;28;20453;-88
2022/12/24 02:17:03;;;;;;;22.07;12.30;;;;;;;14.67;100.00;102097.38;4956493;28;21003;-88
2022/12/24 02:19:50;;;;;;;14.93;9.67;;;;;;;14.67;100.00;102091.88;4983557;28;20484;-88
2022/12/24 02:22:51;;;;;;;24.93;9.83;;;;;;;14.67;100.00;102091.88;5010677;28;20444;-89
2022/12/24 02:25:50;;;;;;;15.23;9.53;;;;;;;14.67;100.00;102103.72;4985884;28;20522;-88
2022/12/24 02:28:51;;;;;;;15.00;9.23;;;;;;;14.70;100.00;102105.25;5051264;28;20498;-88
2022/12/24 02:32:00;;;;;;;21.20;9.03;;;;;;;14.69;100.00;102101.66;5059358;28;20447;-89
2022/12/24 02:34:57;;;;;;;21.23;9.20;;;;;;;14.71;100.00;102104.22;5051845;28;20449;-88
2022/12/24 02:37:32;;;;;;;13.47;8.47;;;;;;;14.74;100.00;102103.84;5034307;28;20435;-87
2022/12/24 02:40:24;;;;;;;16.13;8.53;;;;;;;14.75;100.00;102105.56;5018884;28;20451;-88
2022/12/24 02:42:58;;;;;;;20.53;8.30;;;;;;;14.73;100.00;102102.13;5030069;28;20800;-88
2022/12/24 02:45:32;;;;;;;23.63;8.67;;;;;;;14.75;100.00;102100.06;5039014;28;20480;-88
2022/12/24 02:48:01;;;;;;;13.93;8.73;;;;;;;14.74;100.00;102106.59;5037999;28;20442;-87
2022/12/24 02:50:28;;;;;;;17.40;9.40;;;;;;;14.75;100.00;102100.06;5037559;28;20557;-88
2022/12/24 02:52:58;;;;;;;15.97;9.80;;;;;;;14.71;100.00;102090.47;5018504;28;20458;-88
2022/12/24 02:55:40;;;;;;;14.50;9.10;;;;;;;14.76;100.00;102099.00;5036668;28;20578;-88
2022/12/24 02:58:42;;;;;;;26.13;14.50;;;;;;;14.75;100.00;102100.06;5011501;28;20447;-88
2022/12/24 03:01:39;;;;;;;17.30;10.37;;;;;;;14.74;100.00;102092.84;5035133;28;20451;-88
2022/12/24 03:04:18;;;;;;;16.97;9.00;;;;;;;14.74;100.00;102087.34;5019556;28;20964;-89
2022/12/24 03:06:56;;;;;;;21.23;8.20;;;;;;;14.74;100.00;102087.34;5038857;28;20453;-88
2022/12/24 03:09:32;;;;;;;15.83;7.73;;;;;;;14.71;100.00;102076.69;5042096;28;20438;-89
2022/12/24 03:12:08;;;;;;;12.13;7.73;;;;;;;14.69;100.00;102067.78;5061711;28;20462;-89
2022/12/24 03:14:35;;;;;;;13.33;8.00;;;;;;;14.71;100.00;102084.97;5003736;28;20446;-88
2022/12/24 03:17:02;;;;;;;13.10;8.20;;;;;;;14.70;100.00;102075.00;5032806;28;20459;-88
2022/12/24 03:19:30;;;;;;;21.83;8.00;;;;;;;14.71;100.00;102079.44;5020528;28;20455;-89
2022/12/24 03:21:58;;;;;;;13.00;8.23;;;;;;;14.71;100.00;102068.44;5028642;28;20439;-89
2022/12/24 03:24:26;;;;;;;15.00;8.50;;;;;;;14.72;100.00;102073.75;4987061;28;20440;-88
2022/12/24 03:26:54;;;;;;;15.93;8.23;;;;;;;14.71;100.00;102076.69;4984016;28;20472;-88
2022/12/24 03:29:23;;;;;;;22.20;10.10;;;;;;;14.73;100.00;102074.63;5033342;28;20816;-88
2022/12/24 03:31:52;;;;;;;23.33;11.23;;;;;;;14.70;100.00;102070.34;5033424;28;20435;-88
2022/12/24 03:34:19;;;;;;;16.43;9.00;;;;;;;14.66;100.00;102057.13;5006806;28;20441;-88
2022/12/24 03:36:47;;;;;;;26.63;10.13;;;;;;;14.74;100.00;102059.81;4998096;28;20444;-87
2022/12/24 03:39:15;;;;;;;15.90;8.60;;;;;;;14.74;100.00;102057.06;4993372;28;20483;-88
2022/12/24 03:41:42;;;;;;;15.17;9.03;;;;;;;14.72;100.00;102053.63;5001922;28;20969;-88
2022/12/24 03:44:10;;;;;;;19.27;9.00;;;;;;;14.75;100.00;102050.50;4982146;28;20448;-88
2022/12/24 03:46:37;;;;;;;21.63;10.27;;;;;;;14.72;100.00;102031.63;4996134;28;20436;-89
2022/12/24 03:49:07;;;;;;;13.83;7.87;;;;;;;14.73;100.00;102047.94;5007494;28;20789;-89
2022/12/24 03:51:38;;;;;;;20.73;7.30;;;;;;;14.76;100.00;102049.47;5012931;28;20480;-89
2022/12/24 03:54:06;;;;;;;11.00;7.27;;;;;;;14.71;100.00;102044.53;5050080;28;20527;-88
2022/12/24 03:56:34;;;;;;;10.70;7.30;;;;;;;14.76;100.00;102046.72;5033922;28;20431;-88
2022/12/24 03:59:01;;;;;;;13.60;7.70;;;;;;;14.72;100.00;102050.88;5014472;28;20456;-88
2022/12/24 04:01:29;;;;;;;19.93;7.53;;;;;;;14.71;100.00;102046.44;5014302;28;20433;-88
2022/12/24 04:04:05;;;;;;;14.60;10.10;;;;;;;14.74;100.00;102043.31;5010407;28;20436;-88
2022/12/24 04:06:33;;;;;;;19.10;10.13;;;;;;;14.74;100.00;102043.31;5005861;28;20447;-88
2022/12/24 04:09:03;;;;;;;22.80;10.87;;;;;;;14.73;100.00;102041.59;4988774;28;20455;-89
2022/12/24 04:11:31;;;;;;;21.20;11.00;;;;;;;14.70;100.00;102044.72;4994861;28;21077;-88
2022/12/24 04:13:59;;;;;;;23.27;11.43;;;;;;;14.68;100.00;102044.91;5013477;28;20475;-88
2022/12/24 04:16:27;;;;;;;21.77;10.97;;;;;;;14.69;100.00;102040.25;5007442;28;20444;-88
2022/12/24 04:18:55;;;;;;;29.10;9.77;;;;;;;14.72;100.00;102040.72;4995795;28;20459;-88
2022/12/24 04:21:23;;;;;;;18.20;8.77;;;;;;;14.74;100.00;102035.03;5011522;28;20455;-89
2022/12/24 04:23:52;;;;;;;17.07;8.30;;;;;;;14.76;100.00;102035.72;4997521;28;20444;-88
2022/12/24 04:26:19;;;;;;;18.00;8.13;;;;;;;14.75;100.00;102028.50;5013499;28;20452;-89
2022/12/24 04:28:47;;;;;;;17.43;7.63;;;;;;;14.74;100.00;102026.78;5052342;28;20438;-88
2022/12/24 04:31:17;;;;;;;15.47;7.73;;;;;;;14.76;100.00;102030.22;5053128;28;20482;-89
2022/12/24 04:33:45;;;;;;;16.27;8.20;;;;;;;14.74;100.00;102021.28;5036047;28;20538;-89
2022/12/24 04:36:18;;;;;;;15.70;7.93;;;;;;;14.77;100.00;102023.66;5037182;28;20446;-89
2022/12/24 04:38:48;;;;;;;17.37;8.27;;;;;;;14.66;100.00;102010.34;5052524;28;20439;-89
2022/12/24 04:41:17;;;;;;;15.00;7.40;;;;;;;14.76;100.00;102028.31;5040031;28;20434;-89
2022/12/24 04:43:51;;;;;;;13.50;7.43;;;;;;;14.73;100.00;102014.06;5036077;28;20529;-89
2022/12/24 04:46:22;;;;;;;16.47;7.73;;;;;;;14.74;100.00;102019.38;5017838;28;20962;-89
2022/12/24 04:48:51;;;;;;;22.40;8.63;;;;;;;14.76;100.00;102014.56;5022502;28;20451;-89
2022/12/24 04:51:19;;;;;;;12.37;8.17;;;;;;;14.76;100.00;102008.19;4991488;28;20828;-89
2022/12/24 04:53:48;;;;;;;18.93;8.10;;;;;;;14.75;100.00;102012.00;5052503;28;20810;-89
2022/12/24 04:56:21;;;;;;;15.93;8.10;;;;;;;14.76;100.00;102011.78;5047141;28;20459;-89
2022/12/24 04:58:49;;;;;;;19.43;7.90;;;;;;;14.76;100.00;102013.69;4984350;28;20439;-90
2022/12/24 05:01:26;;;;;;;18.20;8.53;;;;;;;14.79;100.00;102016.94;5032411;28;20444;-89
2022/12/24 05:03:58;;;;;;;12.23;7.40;;;;;;;14.78;100.00;102014.34;5033330;28;20466;-88
2022/12/24 05:06:29;;;;;;;16.40;7.90;;;;;;;14.78;100.00;102011.59;5036613;28;20437;-89
2022/12/24 05:08:56;;;;;;;13.00;8.10;;;;;;;14.77;100.00;102009.91;5035861;28;20546;-89
2022/12/24 05:11:26;;;;;;;12.73;7.40;;;;;;;14.77;100.00;102010.75;5040222;28;20479;-89
2022/12/24 05:13:55;;;;;;;14.77;7.53;;;;;;;14.77;100.00;102009.91;5035871;28;20449;-89
2022/12/24 05:16:23;;;;;;;16.60;7.27;;;;;;;14.78;100.00;102012.47;5017527;28;20501;-88
2022/12/24 05:18:53;;;;;;;16.83;7.07;;;;;;;14.78;100.00;102004.22;5044999;28;20447;-88
2022/12/24 05:21:22;;;;;;;16.00;7.63;;;;;;;14.77;100.00;101994.25;5002748;28;20999;-88
2022/12/24 05:26:35;;;;;;;12.77;7.23;;;;;;;14.78;100.00;102001.47;5052597;28;20438;-88
2022/12/24 05:29:05;;;;;;;14.10;7.20;;;;;;;14.75;100.00;101989.97;5045097;28;20445;-89
2022/12/24 05:31:33;;;;;;;11.77;6.50;;;;;;;14.75;100.00;101978.97;5035807;28;20505;-89
2022/12/24 05:34:02;;;;;;;14.90;6.80;;;;;;;14.77;100.00;101983.22;5033510;28;20570;-88
2022/12/24 05:36:29;;;;;;;13.03;6.87;;;;;;;14.79;100.00;101985.78;5024442;28;20514;-88
2022/12/24 05:38:57;;;;;;;13.83;6.53;;;;;;;14.78;100.00;101989.59;5016250;28;20522;-88
2022/12/24 05:41:25;;;;;;;13.63;8.03;;;;;;;14.67;100.00;101960.63;5015785;28;20966;-88
2022/12/24 05:43:53;;;;;;;21.40;7.83;;;;;;;14.80;100.00;101979.25;5031884;28;20455;-88
2022/12/24 05:46:21;;;;;;;20.97;8.63;;;;;;;14.73;100.00;101972.78;5032092;28;20452;-89
2022/12/24 05:48:49;;;;;;;17.93;8.80;;;;;;;14.75;100.00;101973.44;4995805;28;20814;-89
2022/12/24 05:51:18;;;;;;;23.00;8.43;;;;;;;14.79;100.00;101986.66;5015851;28;20479;-88
2022/12/24 05:53:46;;;;;;;15.77;7.87;;;;;;;14.77;100.00;101976.88;5038693;28;20489;-88
2022/12/24 05:56:17;;;;;;;12.70;7.83;;;;;;;14.77;100.00;101979.63;5038349;28;20450;-88
2022/12/24 05:58:45;;;;;;;11.70;7.00;;;;;;;14.78;100.00;101975.81;5023577;28;20435;-88
2022/12/24 06:01:13;;;;;;;18.80;8.10;;;;;;;14.76;100.00;101975.16;5019796;28;20443;-88
2022/12/24 06:03:41;;;;;;;15.37;7.80;;;;;;;14.75;100.00;101974.31;4988302;28;20427;-88
2022/12/24 06:06:32;;;;;;;19.73;7.33;;;;;;;14.76;100.00;101972.41;5002456;28;20443;-88
2022/12/24 06:09:01;;;;;;;18.97;7.90;;;;;;;14.77;100.00;101971.38;5036002;28;20455;-88
2022/12/24 06:11:29;;;;;;;13.30;6.73;;;;;;;14.73;100.00;101959.88;5035989;28;20483;-89
2022/12/24 06:13:59;;;;;;;11.37;7.03;;;;;;;14.73;100.00;101965.38;5052385;28;20470;-89
2022/12/24 06:16:28;;;;;;;11.67;6.93;;;;;;;14.73;100.00;101967.28;5021645;28;20443;-89
2022/12/24 06:18:57;;;;;;;9.73;6.90;;;;;;;14.71;100.00;101963.88;5070177;28;20439;-89
2022/12/24 06:21:28;;;;;;;13.33;6.73;;;;;;;14.67;100.00;101963.38;5039291;28;20500;-89
2022/12/24 06:23:58;;;;;;;22.40;6.40;;;;;;;14.71;100.00;101969.38;5038678;28;20449;-89
2022/12/24 06:26:26;;;;;;;12.57;6.90;;;;;;;14.66;100.00;101956.19;5071959;28;20449;-89
2022/12/24 06:28:54;;;;;;;9.97;6.20;;;;;;;14.68;100.00;101961.50;5006529;28;20453;-88
2022/12/24 06:31:22;;;;;;;26.60;7.50;;;;;;;14.70;100.00;101962.16;5022259;28;20470;-88
2022/12/24 06:33:52;;;;;;;17.40;8.23;;;;;;;14.70;100.00;101964.91;5022844;28;20442;-88
2022/12/24 06:36:23;;;;;;;11.50;7.17;;;;;;;14.71;100.00;101967.47;5022762;28;20442;-88
2022/12/24 06:38:52;;;;;;;18.47;7.80;;;;;;;14.68;100.00;101953.22;5023043;28;20465;-89
2022/12/24 06:41:29;;;;;;;17.27;7.53;;;;;;;14.67;100.00;101957.88;5022215;28;20820;-89
2022/12/24 06:43:58;;;;;;;22.73;7.93;;;;;;;14.71;100.00;101966.63;5042213;28;20443;-88
2022/12/24 06:46:26;;;;;;;13.57;7.50;;;;;;;14.58;100.00;101938.94;5016665;28;20451;-88
2022/12/24 06:48:57;;;;;;;20.73;9.13;;;;;;;14.67;100.00;101952.38;5011082;28;20472;-88
2022/12/24 06:51:25;;;;;;;28.27;8.23;;;;;;;14.69;100.00;101952.19;5002838;28;20486;-89
2022/12/24 06:53:52;;;;;;;14.77;8.20;;;;;;;14.70;100.00;101949.25;5023392;28;20451;-89
2022/12/24 06:56:20;;;;;;;16.07;7.50;;;;;;;14.70;100.00;101956.66;5034507;28;20443;-88
2022/12/24 06:58:48;;;;;;;14.80;8.10;;;;;;;14.69;100.00;101949.44;5002662;28;20973;-89
2022/12/24 07:01:16;;;;;;;13.80;7.70;;;;;;;14.73;100.00;101959.03;5002746;28;20447;-88
2022/12/24 07:03:44;;;;;;;16.43;8.40;;;;;;;14.70;100.00;101942.91;5019101;28;20475;-88
2022/12/24 07:06:34;;;;;;;15.47;7.57;;;;;;;14.69;100.00;101941.19;5007000;28;20446;-88
2022/12/24 07:09:04;;;;;;;15.53;6.90;;;;;;;14.74;100.00;101944.22;5021729;28;20447;-88
2022/12/24 07:11:33;;;;;;;11.33;6.83;;;;;;;14.70;100.00;101953.91;5033891;28;20988;-91
2022/12/24 07:14:00;;;;;;;10.17;6.73;;;;;;;14.69;100.00;101955.81;5008476;28;20458;-89
2022/12/24 07:16:28;;;;;;;17.80;7.20;;;;;;;14.70;100.00;101948.41;5001597;28;20820;-89
2022/12/24 07:18:55;;;;;;;13.93;6.50;;;;;;;14.70;100.00;101942.91;5012152;28;20573;-88
2022/12/24 07:21:29;;;;;;;9.70;6.20;;;;;;;14.71;100.00;101944.59;5021940;28;20454;-88
2022/12/24 07:23:56;;;;;;;19.30;7.70;;;;;;;14.72;100.00;101952.66;5001706;28;20934;-88
2022/12/24 07:26:24;;;;;;;15.70;7.90;;;;;;;14.68;100.00;101936.72;4994390;28;20455;-88
2022/12/24 07:28:53;;;;;;;15.13;7.40;;;;;;;14.72;100.00;101946.31;5035255;28;20458;-88
2022/12/24 07:31:21;;;;;;;23.73;7.50;;;;;;;14.70;100.00;101948.41;5005313;28;20484;-89
2022/12/24 07:33:51;;;;;;;14.53;7.47;;;;;;;14.66;100.00;101953.44;5021492;28;20446;-88
2022/12/24 07:36:19;;;;;;;14.73;7.10;;;;;;;14.66;100.00;101947.06;4990863;28;20937;-88
2022/12/24 07:38:47;;;;;;;13.60;7.57;;;;;;;14.69;100.00;101946.69;5001415;28;20477;-89
2022/12/24 07:41:16;;;;;;;24.07;8.33;;;;;;;14.68;100.00;101942.22;4999246;28;20459;-89
2022/12/24 07:43:44;;;;;;;13.10;6.93;;;;;;;14.68;100.00;101939.47;5013166;28;20436;-89
2022/12/24 07:46:12;;;;;;;13.27;8.10;;;;;;;14.71;100.00;101948.22;5021395;28;20447;-89
2022/12/24 07:48:39;;;;;;;17.53;10.83;;;;;;;14.65;100.00;101945.34;5005061;28;20450;-88
2022/12/24 07:51:11;;;;;;;24.50;16.73;;;;;;;14.67;100.00;101954.28;5017545;28;20477;-88
2022/12/24 07:53:46;;;;;;;18.73;8.90;;;;;;;14.60;100.00;101929.44;5050491;28;20441;-89
2022/12/24 07:56:16;;;;;;;15.07;8.23;;;;;;;14.58;100.00;101934.28;5030323;28;20457;-89
2022/12/24 07:58:44;;;;;;;18.00;11.83;;;;;;;14.62;100.00;101943.00;5002014;28;20819;-89
2022/12/24 08:01:12;;;;;;;18.10;10.23;;;;;;;14.68;100.00;101959.59;5013177;28;20984;-88
2022/12/24 08:03:42;;;;;;;19.17;8.80;;;;;;;14.74;100.00;101960.75;4985986;28;20440;-88
2022/12/24 08:06:10;;;;;;;18.97;8.70;;;;;;;14.68;100.00;101956.00;5002216;28;20506;-89
2022/12/24 08:08:41;;;;;;;19.23;8.97;;;;;;;14.77;100.00;101965.88;5018260;28;20507;-88
2022/12/24 08:11:08;;;;;;;17.53;9.57;;;;;;;14.71;100.00;101939.09;5029004;28;20465;-89
2022/12/24 08:13:44;;;;;;;21.20;9.20;;;;;;;14.79;100.00;101952.78;5005112;28;20443;-89
2022/12/24 08:16:31;;;;;;;13.23;9.20;;;;;;;14.82;100.00;101957.84;4986953;28;20456;-89
2022/12/24 08:22:22;;;;;;;15.90;9.47;;;;;;;14.88;100.00;101957.09;5056859;28;20827;-88
2022/12/24 08:24:51;;;;;;;18.10;9.57;;;;;;;14.87;100.00;101955.41;5016508;28;20450;-89
2022/12/24 08:27:19;;;;;;;20.30;10.70;;;;;;;14.93;100.00;101968.41;5034949;28;20464;-88
2022/12/24 08:29:46;;;;;;;21.87;9.23;;;;;;;14.96;100.00;101959.75;5046510;28;20528;-89
2022/12/24 08:32:14;;;;;;;14.37;9.03;;;;;;;14.90;100.00;101946.75;5079175;28;20470;-88
2022/12/24 08:34:42;;;;;;;18.73;9.20;;;;;;;14.98;100.00;101962.31;5079300;28;20426;-88
2022/12/24 08:37:09;;;;;;;18.63;9.10;;;;;;;15.03;100.00;101968.94;5057055;28;20455;-89
2022/12/24 08:39:37;;;;;;;22.30;9.30;;;;;;;15.06;100.00;101968.56;5017631;28;20431;-89
2022/12/24 08:42:08;;;;;;;18.43;9.13;;;;;;;15.11;100.00;101960.56;5017029;28;20443;-89
2022/12/24 08:44:36;;;;;;;23.10;9.90;;;;;;;15.14;100.00;101960.19;5049919;28;20435;-88
2022/12/24 08:47:04;;;;;;;20.63;9.03;;;;;;;15.19;100.00;101968.72;5017300;28;20435;-89
2022/12/24 08:49:33;;;;;;;32.33;10.00;;;;;;;15.20;100.00;101967.66;5045272;28;20439;-91
2022/12/24 08:52:08;;;;;;;19.70;9.67;;;;;;;15.16;100.00;101949.84;5022472;28;20474;-89
2022/12/24 08:54:36;;;;;;;15.50;9.50;;;;;;;15.34;100.00;101956.81;5004434;28;20948;-89
2022/12/24 08:57:07;;;;;;;18.60;9.40;;;;;;;15.39;100.00;101970.84;5005640;28;20512;-88
2022/12/24 08:59:37;;;;;;;14.30;8.67;;;;;;;15.43;100.00;101969.38;5004287;28;20477;-90
2022/12/24 09:02:07;;;;;;;14.80;7.70;;;;;;;15.48;100.00;101975.16;5020973;28;20955;-88
2022/12/24 09:04:40;;;;;;;19.40;9.10;;;;;;;15.49;100.00;101972.22;5004496;28;20435;-89
2022/12/24 09:07:09;;;;;;;21.40;8.93;;;;;;;15.52;100.00;101970.97;5004174;28;20478;-87
2022/12/24 09:09:37;;;;;;;25.73;10.40;;;;;;;15.57;100.00;101974.03;5015852;28;20466;-87
2022/12/24 09:12:05;;;;;;;12.37;8.70;;;;;;;15.59;100.00;101965.59;4984091;28;20487;-86
2022/12/24 09:14:33;;;;;;;13.43;8.03;;;;;;;15.57;100.00;101956.66;5010201;28;20530;-87
2022/12/24 09:17:01;;;;;;;15.33;8.33;;;;;;;15.70;100.00;101971.41;5052161;28;20945;-87
2022/12/24 09:19:29;;;;;;;16.83;7.80;;;;;;;15.71;100.00;101970.34;5051675;28;20454;-86
2022/12/24 09:21:58;;;;;;;18.23;9.10;;;;;;;15.76;100.00;101978.03;5068068;28;20970;-87
2022/12/24 09:24:26;;;;;;;15.33;9.47;;;;;;;15.75;100.00;101974.44;5035651;28;20958;-87
2022/12/24 09:26:53;;;;;;;23.00;11.83;;;;;;;15.83;100.00;101985.31;5054660;28;20501;-90
2022/12/24 09:29:33;;;;;;;23.03;12.77;;;;;;;15.88;100.00;101984.72;5035117;28;20537;-91
2022/12/24 09:32:03;;;;;;;53.70;26.47;;;;;;;15.90;100.00;101990.88;5049438;28;20838;-89
2022/12/24 09:34:31;;;;;;;35.30;17.03;;;;;;;15.94;100.00;101994.09;5033432;28;20448;-90
2022/12/24 09:37:01;;;;;;;32.27;18.67;;;;;;;15.91;100.00;101976.06;5020608;28;20502;-91
2022/12/24 09:39:30;;;;;;;23.40;10.83;;;;;;;16.01;100.00;101995.00;5020547;28;20450;-90
2022/12/24 09:42:10;;;;;;;20.50;8.77;;;;;;;16.08;100.00;101999.53;5053058;28;20486;-90
2022/12/24 09:45:04;;;;;;;15.20;7.50;;;;;;;16.13;100.00;101993.44;5036192;28;20446;-90
2022/12/24 09:48:02;;;;;;;18.03;7.73;;;;;;;16.23;100.00;101992.00;5036398;28;20455;-90
2022/12/24 09:51:06;;;;;;;16.03;7.73;;;;;;;16.29;100.00;101987.59;5030451;28;20442;-91
2022/12/24 09:53:40;;;;;;;26.53;10.67;;;;;;;16.42;100.00;101990.44;5002950;28;20529;-91
2022/12/24 09:56:25;;;;;;;24.33;9.73;;;;;;;16.47;100.00;101990.69;5036501;28;20496;-90
2022/12/24 09:59:01;;;;;;;15.23;7.50;;;;;;;16.61;100.00;101996.28;5004441;28;20713;-90
2022/12/24 10:01:33;;;;;;;14.77;7.10;;;;;;;16.74;100.00;101999.19;5004024;28;20453;-90
2022/12/24 10:04:04;;;;;;;17.30;7.60;;;;;;;16.79;100.00;101991.13;5004193;28;20431;-91
2022/12/24 10:07:10;;;;;;;10.03;6.60;;;;;;;16.90;100.00;101996.09;5003646;28;20446;-90
2022/12/24 10:09:49;;;;;;;14.60;6.67;;;;;;;16.99;100.00;101992.06;4973085;28;20450;-90
2022/12/24 10:12:36;;;;;;;20.07;6.70;;;;;;;17.08;100.00;101993.63;4921563;29;21046;-88
2022/12/24 10:15:11;;;;;;;12.10;6.57;;;;;;;17.18;100.00;101988.53;4920995;29;20447;-89
2022/12/24 10:18:05;;;;;;;13.93;6.57;;;;;;;17.27;100.00;101990.06;4948049;29;20448;-89
2022/12/24 10:21:12;;;;;;;14.53;7.30;;;;;;;17.43;100.00;101982.47;4941354;29;20538;-89
2022/12/24 10:24:10;;;;;;;14.97;6.73;;;;;;;17.54;100.00;101984.59;4881664;29;20446;-92
2022/12/24 10:27:05;;;;;;;15.93;7.03;;;;;;;17.65;100.00;101981.25;4896988;29;20505;-92
2022/12/24 10:29:36;;;;;;;14.30;6.90;;;;;;;17.70;100.00;101981.50;4869781;29;20468;-89
2022/12/24 10:32:06;;;;;;;25.13;7.37;;;;;;;17.79;100.00;101976.59;4867355;29;20597;-88
2022/12/24 10:35:12;;;;;;;22.53;7.00;;;;;;;17.84;100.00;101969.38;4895565;29;20529;-87
2022/12/24 10:37:43;;;;;;;12.50;6.37;;;;;;;17.95;100.00;101976.19;4895078;29;20465;-87
2022/12/24 10:40:25;;;;;;;13.40;5.83;;;;;;;17.96;100.00;101955.75;4880226;29;20446;-87
2022/12/24 10:42:52;;;;;;;16.03;4.83;;;;;;;18.09;100.00;101961.25;4916461;29;20447;-87
2022/12/24 10:45:21;;;;;;;14.67;5.43;;;;;;;18.22;100.00;101963.19;4886640;29;20831;-88
2022/12/24 10:47:50;;;;;;;15.03;6.20;;;;;;;18.36;100.00;101959.34;4935421;29;20532;-89
2022/12/24 10:50:27;;;;;;;11.30;5.53;;;;;;;18.45;100.00;101952.50;4938898;29;20455;-88
2022/12/24 10:52:58;;;;;;;13.00;5.73;;;;;;;18.59;100.00;101964.44;4923148;29;20493;-90
2022/12/24 10:55:37;;;;;;;14.90;5.50;;;;;;;18.71;100.00;101957.13;4939837;29;20450;-90
2022/12/24 10:58:18;;;;;;;23.40;11.20;;;;;;;18.80;100.00;101966.06;4984860;28;20442;-90
2022/12/24 11:00:49;;;;;;;24.53;7.20;;;;;;;18.85;100.00;101966.28;5015911;28;20467;-90
2022/12/24 11:03:31;;;;;;;15.67;5.30;;;;;;;18.90;100.00;101960.91;5015998;28;20942;-93
2022/12/24 11:06:07;;;;;;;16.50;4.80;;;;;;;18.95;100.00;101967.50;4999878;28;20935;-91
2022/12/24 11:08:37;;;;;;;11.03;6.57;;;;;;;18.94;100.00;101953.88;5015691;28;20452;-91
2022/12/24 11:11:08;;;;;;;15.67;5.90;;;;;;;18.96;100.00;101960.03;5009307;28;20440;-91
2022/12/24 11:13:40;;;;;;;9.33;3.17;;;;;;;18.92;100.00;101951.31;5031603;28;20480;-91
2022/12/24 11:16:20;;;;;;;5.50;2.93;;;;;;;18.96;100.00;101960.03;5006939;28;20487;-89
2022/12/24 11:18:53;;;;;;;47.50;28.70;;;;;;;18.96;100.00;101946.19;5019128;28;20881;-92
2022/12/24 11:21:43;;;;;;;30.00;14.40;;;;;;;19.04;100.00;101947.88;5004229;28;20443;-91
2022/12/24 11:24:23;;;;;;;18.37;9.83;;;;;;;19.12;100.00;101940.13;5018202;28;20447;-91
2022/12/24 11:26:51;;;;;;;18.60;8.67;;;;;;;19.18;100.00;101930.94;5002752;28;21003;-93
2022/12/24 11:29:27;;;;;;;18.90;9.00;;;;;;;19.25;100.00;101928.97;4996841;28;20444;-91
2022/12/24 11:32:19;;;;;;;55.50;28.67;;;;;;;19.22;100.00;101918.34;5023069;28;20474;-91
2022/12/24 11:35:08;;;;;;;63.17;37.50;;;;;;;19.24;100.00;101918.13;5047945;28;20441;-92
2022/12/24 11:38:02;;;;;;;39.60;22.47;;;;;;;19.33;100.00;101920.41;5012007;28;20537;-91
2022/12/24 11:41:19;;;;;;;31.20;20.23;;;;;;;19.48;100.00;101911.75;5055880;28;20445;-90